createdAt,value
2023-04-27T00:00:28.696Z,221.34
2023-04-27T00:01:28.694Z,219.79
2023-04-27T00:02:28.902Z,221.67
2023-04-27T00:03:28.868Z,221.27
2023-04-27T00:04:28.917Z,221.87
2023-04-27T00:05:28.814Z,221.08
2023-04-27T00:06:28.746Z,219.96
2023-04-27T00:07:28.808Z,221.52
2023-04-27T00:08:28.797Z,219.81
2023-04-27T00:09:28.818Z,220.78
2023-04-27T00:10:28.870Z,221.67
2023-04-27T00:11:28.902Z,219.77
2023-04-27T00:12:28.921Z,221.07
2023-04-27T00:13:28.938Z,221.31
2023-04-27T00:14:28.956Z,220.37
2023-04-27T00:15:28.953Z,220.85
2023-04-27T00:16:29.034Z,220.76
2023-04-27T00:17:29.009Z,219.87
2023-04-27T00:18:29.029Z,220.87
2023-04-27T00:19:29.022Z,221.19
2023-04-27T00:20:29.035Z,220.41
2023-04-27T00:21:29.025Z,220.83
2023-04-27T00:22:29.032Z,220.97
2023-04-27T00:23:29.042Z,220.15
2023-04-27T00:24:29.080Z,219.76
2023-04-27T00:25:29.054Z,220.54
2023-04-27T00:26:29.095Z,219.95
2023-04-27T00:27:29.113Z,220.37
2023-04-27T00:28:29.158Z,219.70
2023-04-27T00:29:29.189Z,219.54
2023-04-27T00:30:29.153Z,218.55
2023-04-27T00:31:29.242Z,219.58
2023-04-27T00:32:29.285Z,219.21
2023-04-27T00:33:29.217Z,219.25
2023-04-27T00:34:29.259Z,219.84
2023-04-27T00:35:29.267Z,219.04
2023-04-27T00:36:29.259Z,219.83
2023-04-27T00:37:29.331Z,219.56
2023-04-27T00:38:29.304Z,218.87
2023-04-27T00:39:29.291Z,219.67
2023-04-27T00:40:29.313Z,218.36
2023-04-27T00:41:29.366Z,219.53
2023-04-27T00:42:29.398Z,219.36
2023-04-27T00:43:29.379Z,219.11
2023-04-27T00:44:29.446Z,219.26
2023-04-27T00:45:29.426Z,217.82
2023-04-27T00:46:29.540Z,218.88
2023-04-27T00:47:29.515Z,219.23
2023-04-27T00:48:29.496Z,217.98
2023-04-27T00:49:29.466Z,220.01
2023-04-27T00:50:29.630Z,219.27
2023-04-27T00:51:29.492Z,219.27
2023-04-27T00:52:29.502Z,219.26
2023-04-27T00:53:29.501Z,218.27
2023-04-27T00:54:29.553Z,217.31
2023-04-27T00:55:29.554Z,218.30
2023-04-27T00:56:29.641Z,217.65
2023-04-27T00:57:29.601Z,218.22
2023-04-27T00:58:29.630Z,218.96
2023-04-27T00:59:29.623Z,217.49
2023-04-27T01:00:29.636Z,219.02
2023-04-27T01:01:29.709Z,217.98
2023-04-27T01:02:29.789Z,218.43
2023-04-27T01:03:29.793Z,216.91
2023-04-27T01:04:29.781Z,217.73
2023-04-27T01:05:31.929Z,218.42
2023-04-27T01:06:29.739Z,217.76
2023-04-27T01:07:29.709Z,219.07
2023-04-27T01:08:29.697Z,217.58
2023-04-27T01:09:29.656Z,217.23
2023-04-27T01:10:29.668Z,217.67
2023-04-27T01:11:29.669Z,217.96
2023-04-27T01:12:29.643Z,217.45
2023-04-27T01:13:29.619Z,216.65
2023-04-27T01:14:29.641Z,216.58
2023-04-27T01:15:29.628Z,218.03
2023-04-27T01:16:29.661Z,217.15
2023-04-27T01:17:29.638Z,217.67
2023-04-27T01:18:29.619Z,217.71
2023-04-27T01:19:29.600Z,217.55
2023-04-27T01:20:29.583Z,217.78
2023-04-27T01:21:29.592Z,217.98
2023-04-27T01:22:29.601Z,216.82
2023-04-27T01:23:29.587Z,217.27
2023-04-27T01:24:29.564Z,217.23
2023-04-27T01:25:29.569Z,216.89
2023-04-27T01:26:29.518Z,216.19
2023-04-27T01:27:29.548Z,217.17
2023-04-27T01:28:29.549Z,216.36
2023-04-27T01:29:29.559Z,217.32
2023-04-27T01:30:29.514Z,217.52
2023-04-27T01:31:29.517Z,217.38
2023-04-27T01:32:29.506Z,215.88
2023-04-27T01:33:29.491Z,216.40
2023-04-27T01:34:29.486Z,216.57
2023-04-27T01:35:29.508Z,217.20
2023-04-27T01:36:29.452Z,217.66
2023-04-27T01:37:29.476Z,215.47
2023-04-27T01:38:29.456Z,216.61
2023-04-27T01:39:29.451Z,216.25
2023-04-27T01:40:29.494Z,216.32
2023-04-27T01:41:29.483Z,216.39
2023-04-27T01:42:29.461Z,216.66
2023-04-27T01:43:29.429Z,216.63
2023-04-27T01:44:29.437Z,215.00
2023-04-27T01:45:29.396Z,216.07
2023-04-27T01:46:29.447Z,215.47
2023-04-27T01:47:29.439Z,215.76
2023-04-27T01:48:29.419Z,215.50
2023-04-27T01:49:29.369Z,216.72
2023-04-27T01:50:29.436Z,215.93
2023-04-27T01:51:29.379Z,216.22
2023-04-27T01:52:29.386Z,215.54
2023-04-27T01:53:29.370Z,216.19
2023-04-27T01:54:29.381Z,216.03
2023-04-27T01:55:29.362Z,216.76
2023-04-27T01:56:29.352Z,214.48
2023-04-27T01:57:29.381Z,215.83
2023-04-27T01:58:29.329Z,214.72
2023-04-27T01:59:29.319Z,216.79
2023-04-27T02:00:29.324Z,214.87
2023-04-27T02:01:29.337Z,215.19
2023-04-27T02:02:29.404Z,215.71
2023-04-27T02:03:29.446Z,216.23
2023-04-27T02:04:29.490Z,214.94
2023-04-27T02:05:29.269Z,215.17
2023-04-27T02:06:29.302Z,215.89
2023-04-27T02:07:29.295Z,216.93
2023-04-27T02:08:29.251Z,214.78
2023-04-27T02:09:29.264Z,215.24
2023-04-27T02:10:29.254Z,214.92
2023-04-27T02:11:29.251Z,215.49
2023-04-27T02:12:29.221Z,214.30
2023-04-27T02:13:29.217Z,215.20
2023-04-27T02:14:29.225Z,214.84
2023-04-27T02:15:29.225Z,213.17
2023-04-27T02:16:29.204Z,215.80
2023-04-27T02:17:29.216Z,214.99
2023-04-27T02:18:29.198Z,214.21
2023-04-27T02:19:29.165Z,214.60
2023-04-27T02:20:29.165Z,214.91
2023-04-27T02:21:29.132Z,214.12
2023-04-27T02:22:29.141Z,213.83
2023-04-27T02:23:29.146Z,214.49
2023-04-27T02:24:29.132Z,213.78
2023-04-27T02:25:29.165Z,213.72
2023-04-27T02:26:29.134Z,214.25
2023-04-27T02:27:29.132Z,213.86
2023-04-27T02:28:29.115Z,214.64
2023-04-27T02:29:29.112Z,211.83
2023-04-27T02:30:29.063Z,213.53
2023-04-27T02:31:29.115Z,213.39
2023-04-27T02:32:29.114Z,213.61
2023-04-27T02:33:29.083Z,214.06
2023-04-27T02:34:29.170Z,214.00
2023-04-27T02:35:29.063Z,212.94
2023-04-27T02:36:29.079Z,214.02
2023-04-27T02:37:29.049Z,213.56
2023-04-27T02:38:29.018Z,213.93
2023-04-27T02:39:29.026Z,213.06
2023-04-27T02:40:29.054Z,213.00
2023-04-27T02:41:29.058Z,214.27
2023-04-27T02:42:29.067Z,213.14
2023-04-27T02:43:29.063Z,213.29
2023-04-27T02:44:29.086Z,214.00
2023-04-27T02:45:29.085Z,213.57
2023-04-27T02:46:29.107Z,213.58
2023-04-27T02:47:29.198Z,213.61
2023-04-27T02:48:29.145Z,213.98
2023-04-27T02:49:29.171Z,212.94
2023-04-27T02:50:29.186Z,212.40
2023-04-27T02:51:29.191Z,213.90
2023-04-27T02:52:29.196Z,213.69
2023-04-27T02:53:29.229Z,213.64
2023-04-27T02:54:29.223Z,213.16
2023-04-27T02:55:29.236Z,213.19
2023-04-27T02:56:29.252Z,213.77
2023-04-27T02:57:29.269Z,213.16
2023-04-27T02:58:29.284Z,213.47
2023-04-27T02:59:29.313Z,213.60
2023-04-27T03:00:29.269Z,212.36
2023-04-27T03:01:29.317Z,212.71
2023-04-27T03:02:29.399Z,212.15
2023-04-27T03:03:29.451Z,212.74
2023-04-27T03:04:29.369Z,211.89
2023-04-27T03:05:29.401Z,212.26
2023-04-27T03:06:29.384Z,211.90
2023-04-27T03:07:29.417Z,211.55
2023-04-27T03:08:29.400Z,212.03
2023-04-27T03:09:29.417Z,212.68
2023-04-27T03:10:29.479Z,212.25
2023-04-27T03:11:29.477Z,212.83
2023-04-27T03:12:29.525Z,211.81
2023-04-27T03:13:29.507Z,211.99
2023-04-27T03:14:29.539Z,212.26
2023-04-27T03:15:29.556Z,212.10
2023-04-27T03:16:29.621Z,211.83
2023-04-27T03:17:29.621Z,211.29
2023-04-27T03:18:29.615Z,211.99
2023-04-27T03:19:29.625Z,210.59
2023-04-27T03:20:29.632Z,211.01
2023-04-27T03:21:29.640Z,211.58
2023-04-27T03:22:29.642Z,211.80
2023-04-27T03:23:29.690Z,211.25
2023-04-27T03:24:29.709Z,211.65
2023-04-27T03:25:29.701Z,210.23
2023-04-27T03:26:29.730Z,211.49
2023-04-27T03:27:29.740Z,209.62
2023-04-27T03:28:29.741Z,210.68
2023-04-27T03:29:29.780Z,210.74
2023-04-27T03:30:29.835Z,211.61
2023-04-27T03:31:29.798Z,211.28
2023-04-27T03:32:29.875Z,210.12
2023-04-27T03:33:29.862Z,210.17
2023-04-27T03:34:29.856Z,210.04
2023-04-27T03:35:29.874Z,210.19
2023-04-27T03:36:29.879Z,210.33
2023-04-27T03:37:29.900Z,211.05
2023-04-27T03:38:29.878Z,210.19
2023-04-27T03:39:29.927Z,210.75
2023-04-27T03:40:29.937Z,210.91
2023-04-27T03:41:29.947Z,209.56
2023-04-27T03:42:29.967Z,209.56
2023-04-27T03:43:29.951Z,210.32
2023-04-27T03:44:29.967Z,210.41
2023-04-27T03:45:29.980Z,210.42
2023-04-27T03:46:30.102Z,210.36
2023-04-27T03:47:30.073Z,211.29
2023-04-27T03:48:30.027Z,209.99
2023-04-27T03:49:30.048Z,210.51
2023-04-27T03:50:30.407Z,208.79
2023-04-27T03:51:30.086Z,208.70
2023-04-27T03:52:30.131Z,210.14
2023-04-27T03:53:30.105Z,210.06
2023-04-27T03:54:30.161Z,210.14
2023-04-27T03:55:30.212Z,209.69
2023-04-27T03:56:30.196Z,210.65
2023-04-27T03:57:30.215Z,210.69
2023-04-27T03:58:30.267Z,210.04
2023-04-27T03:59:30.252Z,209.43
2023-04-27T04:00:30.270Z,209.97
2023-04-27T04:01:30.253Z,210.16
2023-04-27T04:02:30.379Z,209.11
2023-04-27T04:03:30.412Z,209.23
2023-04-27T04:04:30.493Z,208.38
2023-04-27T04:05:30.306Z,210.08
2023-04-27T04:06:30.322Z,209.44
2023-04-27T04:07:30.349Z,210.27
2023-04-27T04:08:30.303Z,208.75
2023-04-27T04:09:30.336Z,208.44
2023-04-27T04:10:30.336Z,208.51
2023-04-27T04:11:30.344Z,208.41
2023-04-27T04:12:30.347Z,210.64
2023-04-27T04:13:30.372Z,209.30
2023-04-27T04:14:30.386Z,208.75
2023-04-27T04:15:30.387Z,208.54
2023-04-27T04:16:30.417Z,207.64
2023-04-27T04:17:30.424Z,207.87
2023-04-27T04:18:30.406Z,208.61
2023-04-27T04:19:30.426Z,208.40
2023-04-27T04:20:30.413Z,209.13
2023-04-27T04:21:30.413Z,209.06
2023-04-27T04:22:30.414Z,209.73
2023-04-27T04:23:30.428Z,209.44
2023-04-27T04:24:30.429Z,208.59
2023-04-27T04:25:30.450Z,209.34
2023-04-27T04:26:30.461Z,208.07
2023-04-27T04:27:30.464Z,208.41
2023-04-27T04:28:30.452Z,208.16
2023-04-27T04:29:30.466Z,207.41
2023-04-27T04:30:30.497Z,208.13
2023-04-27T04:31:30.532Z,207.52
2023-04-27T04:32:30.532Z,207.43
2023-04-27T04:33:30.486Z,208.27
2023-04-27T04:34:30.501Z,207.50
2023-04-27T04:35:30.517Z,208.36
2023-04-27T04:36:30.496Z,208.30
2023-04-27T04:37:30.514Z,206.44
2023-04-27T04:38:30.512Z,208.01
2023-04-27T04:39:30.532Z,207.71
2023-04-27T04:40:30.518Z,207.69
2023-04-27T04:41:30.506Z,208.15
2023-04-27T04:42:30.559Z,207.20
2023-04-27T04:43:30.584Z,206.82
2023-04-27T04:44:30.564Z,208.60
2023-04-27T04:45:30.617Z,207.86
2023-04-27T04:46:30.662Z,208.64
2023-04-27T04:47:30.710Z,208.16
2023-04-27T04:48:30.609Z,208.19
2023-04-27T04:49:30.641Z,210.73
2023-04-27T04:50:30.639Z,210.55
2023-04-27T04:51:30.643Z,211.03
2023-04-27T04:52:30.632Z,211.63
2023-04-27T04:53:30.663Z,212.27
2023-04-27T04:54:30.691Z,211.55
2023-04-27T04:55:30.628Z,210.76
2023-04-27T04:56:30.624Z,211.08
2023-04-27T04:57:30.605Z,211.01
2023-04-27T04:58:30.642Z,209.97
2023-04-27T04:59:32.017Z,211.48
2023-04-27T05:00:30.590Z,210.96
2023-04-27T05:01:30.608Z,212.79
2023-04-27T05:02:30.730Z,211.81
2023-04-27T05:03:30.683Z,211.15
2023-04-27T05:04:30.722Z,212.24
2023-04-27T05:05:30.613Z,211.56
2023-04-27T05:06:30.603Z,211.89
2023-04-27T05:07:30.627Z,211.16
2023-04-27T05:08:30.620Z,211.65
2023-04-27T05:09:30.578Z,212.41
2023-04-27T05:10:30.608Z,214.05
2023-04-27T05:11:30.608Z,212.37
2023-04-27T05:12:30.584Z,212.09
2023-04-27T05:13:30.583Z,212.04
2023-04-27T05:14:30.610Z,213.00
2023-04-27T05:15:30.580Z,211.99
2023-04-27T05:16:30.649Z,212.91
2023-04-27T05:17:30.667Z,212.65
2023-04-27T05:18:30.638Z,214.08
2023-04-27T05:19:30.675Z,213.72
2023-04-27T05:20:30.626Z,214.15
2023-04-27T05:21:30.679Z,213.99
2023-04-27T05:22:30.697Z,214.02
2023-04-27T05:23:30.688Z,213.50
2023-04-27T05:24:30.714Z,214.71
2023-04-27T05:25:30.695Z,214.02
2023-04-27T05:26:30.730Z,213.42
2023-04-27T05:27:30.751Z,214.70
2023-04-27T05:28:30.733Z,215.03
2023-04-27T05:29:30.746Z,214.65
2023-04-27T05:30:30.769Z,214.22
2023-04-27T05:31:30.784Z,214.09
2023-04-27T05:32:30.806Z,215.25
2023-04-27T05:33:30.796Z,215.23
2023-04-27T05:34:30.799Z,216.39
2023-04-27T05:35:30.813Z,216.54
2023-04-27T05:36:30.794Z,215.00
2023-04-27T05:37:30.895Z,217.06
2023-04-27T05:38:30.827Z,218.92
2023-04-27T05:39:30.841Z,218.15
2023-04-27T05:40:30.800Z,219.13
2023-04-27T05:41:30.788Z,221.73
2023-04-27T05:42:31.034Z,224.90
2023-04-27T05:43:30.800Z,226.60
2023-04-27T05:44:30.788Z,227.99
2023-04-27T05:45:30.842Z,232.29
2023-04-27T05:46:30.807Z,230.47
2023-04-27T05:47:30.850Z,233.12
2023-04-27T05:48:30.756Z,262.34
2023-04-27T05:49:30.805Z,250.00
2023-04-27T05:50:30.815Z,245.65
2023-04-27T05:51:30.856Z,249.37
2023-04-27T05:52:31.223Z,249.74
2023-04-27T05:53:30.897Z,246.75
2023-04-27T05:54:30.943Z,249.72
2023-04-27T05:55:30.972Z,249.54
2023-04-27T05:56:30.992Z,249.93
2023-04-27T05:57:31.047Z,248.75
2023-04-27T05:58:31.062Z,250.54
2023-04-27T05:59:31.095Z,247.47
2023-04-27T06:00:31.113Z,249.89
2023-04-27T06:01:31.195Z,242.73
2023-04-27T06:02:31.290Z,241.30
2023-04-27T06:03:31.330Z,239.74
2023-04-27T06:04:31.261Z,240.69
2023-04-27T06:05:31.404Z,240.42
2023-04-27T06:06:31.230Z,240.85
2023-04-27T06:07:31.302Z,238.80
2023-04-27T06:08:31.275Z,240.02
2023-04-27T06:09:31.305Z,239.86
2023-04-27T06:10:31.401Z,241.13
2023-04-27T06:11:31.333Z,240.78
2023-04-27T06:12:31.308Z,240.72
2023-04-27T06:13:31.333Z,239.02
2023-04-27T06:14:31.320Z,238.69
2023-04-27T06:15:31.364Z,238.38
2023-04-27T06:16:31.524Z,239.59
2023-04-27T06:17:31.419Z,238.70
2023-04-27T06:18:31.391Z,237.39
2023-04-27T06:19:31.468Z,240.35
2023-04-27T06:20:31.391Z,241.98
2023-04-27T06:21:31.435Z,239.81
2023-04-27T06:22:31.440Z,239.92
2023-04-27T06:23:31.458Z,238.45
2023-04-27T06:24:31.502Z,239.38
2023-04-27T06:25:31.496Z,238.39
2023-04-27T06:26:31.523Z,238.42
2023-04-27T06:27:31.501Z,239.33
2023-04-27T06:28:31.552Z,242.31
2023-04-27T06:29:31.547Z,241.01
2023-04-27T06:30:31.551Z,236.70
2023-04-27T06:31:31.595Z,238.39
2023-04-27T06:32:31.573Z,238.78
2023-04-27T06:33:31.544Z,240.33
2023-04-27T06:34:31.540Z,242.54
2023-04-27T06:35:31.563Z,243.69
2023-04-27T06:36:31.532Z,245.50
2023-04-27T06:37:31.561Z,244.49
2023-04-27T06:38:31.539Z,245.76
2023-04-27T06:39:31.566Z,244.85
2023-04-27T06:40:31.557Z,244.87
2023-04-27T06:41:31.573Z,246.17
2023-04-27T06:42:31.645Z,249.18
2023-04-27T06:43:31.619Z,249.49
2023-04-27T06:44:31.628Z,249.30
2023-04-27T06:45:31.672Z,239.72
2023-04-27T06:46:31.673Z,226.70
2023-04-27T06:49:25.349Z,25.00
2023-04-27T06:50:25.156Z,25.00
2023-04-27T06:51:25.151Z,25.00
2023-04-27T06:52:25.121Z,25.00
2023-04-27T06:53:25.136Z,25.00
2023-04-27T06:54:25.110Z,36.72
2023-04-27T06:55:25.325Z,48.42
2023-04-27T06:56:25.075Z,60.48
2023-04-27T06:57:25.077Z,64.63
2023-04-27T06:58:25.232Z,68.56
2023-04-27T06:59:25.045Z,73.99
2023-04-27T07:00:25.084Z,74.75
2023-04-27T07:01:25.056Z,66.16
2023-04-27T07:02:25.682Z,80.91
2023-04-27T07:03:25.217Z,91.13
2023-04-27T07:04:25.090Z,96.62
2023-04-27T07:05:25.026Z,102.63
2023-04-27T07:06:25.032Z,104.71
2023-04-27T07:07:25.018Z,106.79
2023-04-27T07:08:25.048Z,111.96
2023-04-27T07:09:27.746Z,115.62
2023-04-27T07:10:24.995Z,116.33
2023-04-27T07:11:24.983Z,118.90
2023-04-27T07:12:24.980Z,126.60
2023-04-27T07:13:25.163Z,137.51
2023-04-27T07:14:24.964Z,154.37
2023-04-27T07:15:24.941Z,163.77
2023-04-27T07:16:24.983Z,169.31
2023-04-27T07:17:24.966Z,173.65
2023-04-27T07:18:24.931Z,176.81
2023-04-27T07:19:24.925Z,179.65
2023-04-27T07:20:24.935Z,186.31
2023-04-27T07:21:24.915Z,189.60
2023-04-27T07:22:24.887Z,194.44
2023-04-27T07:23:24.901Z,198.34
2023-04-27T07:24:24.897Z,199.54
2023-04-27T07:25:24.895Z,202.88
2023-04-27T07:26:24.858Z,208.51
2023-04-27T07:27:24.850Z,213.98
2023-04-27T07:28:24.904Z,218.99
2023-04-27T07:29:27.412Z,218.40
2023-04-27T07:30:25.154Z,218.70
2023-04-27T07:31:24.907Z,220.16
2023-04-27T07:32:24.884Z,222.98
2023-04-27T07:33:24.872Z,231.68
2023-04-27T07:34:24.816Z,241.44
2023-04-27T07:35:24.786Z,246.85
2023-04-27T07:36:24.783Z,247.97
2023-04-27T07:37:24.778Z,249.43
2023-04-27T07:38:24.779Z,250.00
2023-04-27T07:39:24.804Z,250.00
2023-04-27T07:40:24.881Z,250.00
2023-04-27T07:41:24.759Z,248.18
2023-04-27T07:42:24.760Z,250.00
2023-04-27T07:43:24.769Z,247.76
2023-04-27T07:44:24.744Z,249.31
2023-04-27T07:45:24.808Z,246.72
2023-04-27T07:46:24.803Z,250.00
2023-04-27T07:47:24.725Z,248.80
2023-04-27T07:48:24.899Z,249.61
2023-04-27T07:49:24.695Z,247.78
2023-04-27T07:50:24.798Z,246.12
2023-04-27T07:51:24.699Z,244.24
2023-04-27T07:52:24.704Z,242.98
2023-04-27T07:53:24.674Z,240.42
2023-04-27T07:54:24.682Z,238.62
2023-04-27T07:55:24.686Z,234.59
2023-04-27T07:56:24.687Z,231.35
2023-04-27T07:57:24.679Z,231.95
2023-04-27T07:58:24.648Z,234.64
2023-04-27T07:59:24.628Z,233.17
2023-04-27T08:00:24.711Z,230.00
2023-04-27T08:01:24.617Z,229.09
2023-04-27T08:02:24.765Z,227.53
2023-04-27T08:03:24.998Z,226.16
2023-04-27T08:04:24.920Z,224.97
2023-04-27T08:05:24.979Z,226.40
2023-04-27T08:06:24.865Z,221.52
2023-04-27T08:07:24.979Z,221.60
2023-04-27T08:08:24.833Z,222.70
2023-04-27T08:09:24.578Z,222.81
2023-04-27T08:10:24.637Z,220.62
2023-04-27T08:11:24.563Z,220.25
2023-04-27T08:12:24.546Z,220.29
2023-04-27T08:13:25.558Z,220.94
2023-04-27T08:14:24.516Z,219.60
2023-04-27T08:15:24.532Z,218.42
2023-04-27T08:16:24.571Z,218.78
2023-04-27T08:17:24.529Z,215.56
2023-04-27T08:18:24.511Z,216.54
2023-04-27T08:19:24.482Z,211.83
2023-04-27T08:20:24.559Z,212.01
2023-04-27T08:21:24.512Z,213.68
2023-04-27T08:22:24.480Z,210.95
2023-04-27T08:23:24.506Z,211.82
2023-04-27T08:24:24.501Z,212.65
2023-04-27T08:25:24.462Z,210.20
2023-04-27T08:26:26.309Z,209.27
2023-04-27T08:27:24.476Z,208.24
2023-04-27T08:28:24.486Z,209.95
2023-04-27T08:29:28.516Z,206.58
2023-04-27T08:30:24.429Z,206.99
2023-04-27T08:31:24.446Z,210.44
2023-04-27T08:32:24.413Z,213.35
2023-04-27T08:33:24.456Z,220.12
2023-04-27T08:34:24.449Z,228.63
2023-04-27T08:35:24.418Z,231.65
2023-04-27T08:36:24.424Z,227.59
2023-04-27T08:37:24.401Z,235.69
2023-04-27T08:38:25.715Z,235.31
2023-04-27T08:39:24.385Z,228.33
2023-04-27T08:40:24.367Z,183.38
2023-04-27T08:41:24.461Z,159.94
2023-04-27T08:42:24.351Z,92.36
2023-04-27T08:43:24.356Z,28.38
2023-04-27T08:44:24.354Z,19.65
2023-04-27T08:45:24.337Z,29.39
2023-04-27T08:46:24.365Z,23.87
2023-04-27T08:47:35.003Z,15.87
2023-04-27T08:48:25.343Z,16.21
2023-04-27T08:49:24.390Z,0.00
2023-04-27T08:50:24.435Z,0.00
2023-04-27T08:51:24.310Z,0.00
2023-04-27T08:52:24.317Z,0.00
2023-04-27T08:53:24.278Z,10.02
2023-04-27T08:54:24.290Z,11.67
2023-04-27T08:55:24.318Z,19.25
2023-04-27T08:56:24.281Z,52.56
2023-04-27T08:57:24.283Z,77.28
2023-04-27T08:58:24.288Z,102.37
2023-04-27T08:59:24.239Z,118.02
2023-04-27T09:00:24.254Z,132.06
2023-04-27T09:01:24.314Z,140.01
2023-04-27T09:02:24.282Z,146.62
2023-04-27T09:03:24.470Z,153.02
2023-04-27T09:04:24.588Z,156.34
2023-04-27T09:05:24.441Z,159.91
2023-04-27T09:06:24.421Z,167.84
2023-04-27T09:07:25.290Z,175.50
2023-04-27T09:08:24.369Z,180.71
2023-04-27T09:09:24.461Z,192.33
2023-04-27T09:10:24.471Z,199.53
2023-04-27T09:11:24.512Z,205.00
2023-04-27T09:12:24.538Z,211.59
2023-04-27T09:13:24.611Z,212.29
2023-04-27T09:14:24.617Z,215.33
2023-04-27T09:15:24.666Z,217.34
2023-04-27T09:16:24.719Z,218.78
2023-04-27T09:17:24.748Z,221.42
2023-04-27T09:18:24.735Z,226.13
2023-04-27T09:19:24.783Z,231.01
2023-04-27T09:20:24.780Z,232.19
2023-04-27T09:21:24.801Z,236.11
2023-04-27T09:22:24.826Z,238.90
2023-04-27T09:23:24.824Z,243.05
2023-04-27T09:24:24.846Z,243.87
2023-04-27T09:25:24.840Z,248.61
2023-04-27T09:26:24.809Z,249.14
2023-04-27T09:27:24.825Z,250.00
2023-04-27T09:28:24.831Z,250.00
2023-04-27T09:29:24.854Z,250.00
2023-04-27T09:30:24.840Z,249.72
2023-04-27T09:31:24.975Z,249.33
2023-04-27T09:32:24.991Z,250.00
2023-04-27T09:33:25.078Z,249.94
2023-04-27T09:34:25.089Z,248.98
2023-04-27T09:35:25.113Z,249.35
2023-04-27T09:36:25.205Z,249.81
2023-04-27T09:37:25.272Z,249.79
2023-04-27T09:38:25.338Z,250.00
2023-04-27T09:39:25.424Z,249.08
2023-04-27T09:40:25.422Z,249.32
2023-04-27T09:41:25.512Z,249.64
2023-04-27T09:42:25.540Z,249.22
2023-04-27T09:43:25.581Z,248.82
2023-04-27T09:44:25.907Z,249.17
2023-04-27T09:45:25.951Z,248.60
2023-04-27T09:46:25.841Z,226.02
2023-04-27T09:47:25.788Z,207.13
2023-04-27T09:48:25.747Z,216.56
2023-04-27T09:49:25.843Z,227.69
2023-04-27T09:50:25.760Z,230.06
2023-04-27T09:51:25.777Z,227.63
2023-04-27T09:52:25.786Z,228.06
2023-04-27T09:53:25.803Z,226.28
2023-04-27T09:54:25.817Z,222.88
2023-04-27T09:55:25.801Z,218.65
2023-04-27T09:56:25.881Z,217.76
2023-04-27T09:57:25.808Z,215.83
2023-04-27T09:58:25.820Z,212.37
2023-04-27T09:59:25.809Z,210.77
2023-04-27T10:00:25.830Z,208.64
2023-04-27T10:01:25.885Z,199.34
2023-04-27T10:02:26.103Z,204.38
2023-04-27T10:03:25.897Z,202.05
2023-04-27T10:04:26.109Z,202.34
2023-04-27T10:05:25.976Z,197.90
2023-04-27T10:06:25.898Z,196.08
2023-04-27T10:07:25.909Z,195.90
2023-04-27T10:08:25.910Z,194.56
2023-04-27T10:09:25.927Z,190.05
2023-04-27T10:10:25.931Z,190.13
2023-04-27T10:11:25.900Z,192.09
2023-04-27T10:12:25.925Z,192.22
2023-04-27T10:13:25.903Z,191.69
2023-04-27T10:14:25.895Z,192.80
2023-04-27T10:15:25.887Z,192.04
2023-04-27T10:16:25.943Z,191.22
2023-04-27T10:17:26.034Z,192.71
2023-04-27T10:18:26.019Z,193.45
2023-04-27T10:19:26.074Z,192.92
2023-04-27T10:20:26.086Z,193.83
2023-04-27T10:21:26.125Z,194.41
2023-04-27T10:22:26.198Z,197.01
2023-04-27T10:23:26.271Z,197.44
2023-04-27T10:24:26.374Z,197.68
2023-04-27T10:25:26.376Z,199.81
2023-04-27T10:26:26.491Z,200.60
2023-04-27T10:27:26.506Z,201.30
2023-04-27T10:28:26.553Z,202.43
2023-04-27T10:29:26.651Z,200.73
2023-04-27T10:30:26.682Z,204.04
2023-04-27T10:31:26.822Z,205.10
2023-04-27T10:32:26.797Z,206.68
2023-04-27T10:33:26.830Z,208.79
2023-04-27T10:34:26.896Z,211.90
2023-04-27T10:35:26.929Z,215.31
2023-04-27T10:36:26.970Z,215.39
2023-04-27T10:37:26.992Z,218.01
2023-04-27T10:38:27.053Z,217.74
2023-04-27T10:39:36.199Z,216.69
2023-04-27T10:40:28.098Z,216.76
2023-04-27T10:41:27.130Z,216.63
2023-04-27T10:42:27.077Z,216.78
2023-04-27T10:43:27.083Z,216.51
2023-04-27T10:44:27.416Z,215.71
2023-04-27T10:45:29.256Z,214.22
2023-04-27T10:46:27.188Z,215.99
2023-04-27T10:47:27.164Z,214.00
2023-04-27T10:48:27.148Z,213.30
2023-04-27T10:49:27.140Z,212.70
2023-04-27T10:50:27.125Z,209.74
2023-04-27T10:51:27.147Z,209.03
2023-04-27T10:52:27.110Z,207.89
2023-04-27T10:53:27.123Z,206.52
2023-04-27T10:54:27.105Z,206.35
2023-04-27T10:55:27.098Z,206.31
2023-04-27T10:56:27.085Z,205.95
2023-04-27T10:57:27.088Z,205.47
2023-04-27T10:58:37.718Z,203.38
2023-04-27T10:59:28.059Z,203.49
2023-04-27T11:00:27.078Z,203.47
2023-04-27T11:01:27.157Z,202.67
2023-04-27T11:02:27.189Z,200.85
2023-04-27T11:03:27.160Z,199.92
2023-04-27T11:04:27.077Z,199.41
2023-04-27T11:05:27.033Z,198.11
2023-04-27T11:06:26.993Z,197.13
2023-04-27T11:07:27.030Z,196.98
2023-04-27T11:08:26.982Z,195.23
2023-04-27T11:09:27.075Z,195.35
2023-04-27T11:10:27.161Z,194.91
2023-04-27T11:11:27.186Z,194.60
2023-04-27T11:12:27.197Z,193.10
2023-04-27T11:13:27.242Z,191.93
2023-04-27T11:14:27.302Z,192.08
2023-04-27T11:15:27.353Z,191.32
2023-04-27T11:16:27.368Z,190.13
2023-04-27T11:17:27.449Z,190.74
2023-04-27T11:18:27.476Z,189.72
2023-04-27T11:19:27.501Z,189.17
2023-04-27T11:20:27.638Z,188.77
2023-04-27T11:21:27.629Z,188.23
2023-04-27T11:22:27.691Z,187.92
2023-04-27T11:23:27.754Z,187.15
2023-04-27T11:24:27.789Z,187.71
2023-04-27T11:25:27.824Z,186.22
2023-04-27T11:26:27.867Z,186.77
2023-04-27T11:27:27.930Z,186.01
2023-04-27T11:28:28.025Z,184.23
2023-04-27T11:29:28.467Z,185.15
2023-04-27T11:30:28.091Z,185.36
2023-04-27T11:31:28.234Z,184.04
2023-04-27T11:32:28.212Z,184.26
2023-04-27T11:33:28.247Z,184.66
2023-04-27T11:34:28.434Z,182.70
2023-04-27T11:35:28.309Z,182.03
2023-04-27T11:36:28.361Z,181.99
2023-04-27T11:37:28.417Z,182.17
2023-04-27T11:38:28.441Z,180.81
2023-04-27T11:39:28.857Z,182.11
2023-04-27T11:40:28.545Z,180.14
2023-04-27T11:41:28.592Z,180.62
2023-04-27T11:42:28.808Z,180.93
2023-04-27T11:43:28.745Z,179.73
2023-04-27T11:44:28.787Z,178.59
2023-04-27T11:45:28.775Z,180.08
2023-04-27T11:46:28.836Z,179.20
2023-04-27T11:47:28.918Z,177.36
2023-04-27T11:48:28.886Z,177.98
2023-04-27T11:49:28.946Z,177.55
2023-04-27T11:50:28.963Z,178.09
2023-04-27T11:51:28.976Z,177.75
2023-04-27T11:52:29.081Z,175.66
2023-04-27T11:53:29.126Z,176.41
2023-04-27T11:54:30.008Z,174.38
2023-04-27T11:55:29.157Z,174.18
2023-04-27T11:56:29.200Z,173.69
2023-04-27T11:57:29.202Z,173.56
2023-04-27T11:58:29.256Z,172.49
2023-04-27T11:59:29.292Z,172.88
2023-04-27T12:00:29.302Z,172.35
2023-04-27T12:01:37.770Z,172.51
2023-04-27T12:02:30.468Z,172.58
2023-04-27T12:03:29.526Z,172.61
2023-04-27T12:04:29.500Z,171.78
2023-04-27T12:05:29.550Z,172.04
2023-04-27T12:06:33.297Z,171.61
2023-04-27T12:07:29.312Z,172.39
2023-04-27T12:08:29.319Z,172.11
2023-04-27T12:09:29.305Z,172.49
2023-04-27T12:10:29.311Z,170.29
2023-04-27T12:11:29.262Z,168.55
2023-04-27T12:12:29.288Z,168.85
2023-04-27T12:13:29.285Z,168.88
2023-04-27T12:14:29.322Z,166.94
2023-04-27T12:15:29.254Z,168.07
2023-04-27T12:16:29.304Z,166.46
2023-04-27T12:17:29.275Z,166.69
2023-04-27T12:18:29.246Z,165.78
2023-04-27T12:19:29.274Z,164.89
2023-04-27T12:20:29.224Z,165.18
2023-04-27T12:21:29.215Z,164.32
2023-04-27T12:22:29.235Z,162.65
2023-04-27T12:23:29.222Z,162.50
2023-04-27T12:24:29.216Z,162.94
2023-04-27T12:25:29.297Z,161.30
2023-04-27T12:26:29.345Z,160.29
2023-04-27T12:27:29.402Z,160.53
2023-04-27T12:28:29.471Z,159.66
2023-04-27T12:29:29.539Z,158.00
2023-04-27T12:30:29.564Z,159.87
2023-04-27T12:31:29.705Z,159.36